sensor_id;sensor_type;location;lat;lon;timestamp;P1;durP1;ratioP1;P2;durP2;ratioP2
30605;SDS011;17371;51.328;3.860;2022-12-07T00:00:26;5.53;;;2.00;;
30605;SDS011;17371;51.328;3.860;2022-12-07T00:02:51;7.28;;;2.33;;
30605;SDS011;17371;51.328;3.860;2022-12-07T00:05:16;6.10;;;2.43;;
30605;SDS011;17371;51.328;3.860;2022-12-07T00:07:42;7.17;;;2.00;;
30605;SDS011;17371;51.328;3.860;2022-12-07T00:10:07;7.73;;;2.60;;
30605;SDS011;17371;51.328;3.860;2022-12-07T00:12:33;7.53;;;2.35;;
30605;SDS011;17371;51.328;3.860;2022-12-07T00:14:58;9.93;;;1.97;;
30605;SDS011;17371;51.328;3.860;2022-12-07T00:17:25;6.43;;;1.90;;
30605;SDS011;17371;51.328;3.860;2022-12-07T00:19:50;11.25;;;1.98;;
30605;SDS011;17371;51.328;3.860;2022-12-07T00:22:15;3.73;;;2.03;;
30605;SDS011;17371;51.328;3.860;2022-12-07T00:24:41;6.03;;;2.00;;
30605;SDS011;17371;51.328;3.860;2022-12-07T00:27:06;6.57;;;1.93;;
30605;SDS011;17371;51.328;3.860;2022-12-07T00:29:32;5.80;;;1.70;;
30605;SDS011;17371;51.328;3.860;2022-12-07T00:31:57;8.57;;;1.97;;
30605;SDS011;17371;51.328;3.860;2022-12-07T00:34:24;8.53;;;1.90;;
30605;SDS011;17371;51.328;3.860;2022-12-07T00:36:49;7.45;;;1.58;;
30605;SDS011;17371;51.328;3.860;2022-12-07T00:39:15;9.30;;;1.70;;
30605;SDS011;17371;51.328;3.860;2022-12-07T00:41:40;12.13;;;2.10;;
30605;SDS011;17371;51.328;3.860;2022-12-07T00:44:06;10.07;;;1.70;;
30605;SDS011;17371;51.328;3.860;2022-12-07T00:46:31;10.48;;;1.30;;
30605;SDS011;17371;51.328;3.860;2022-12-07T00:48:56;6.45;;;1.70;;
30605;SDS011;17371;51.328;3.860;2022-12-07T00:51:24;7.17;;;1.47;;
30605;SDS011;17371;51.328;3.860;2022-12-07T00:53:50;7.07;;;1.80;;
30605;SDS011;17371;51.328;3.860;2022-12-07T00:56:16;4.37;;;2.10;;
30605;SDS011;17371;51.328;3.860;2022-12-07T00:58:43;5.18;;;1.70;;
30605;SDS011;17371;51.328;3.860;2022-12-07T01:01:09;10.30;;;2.13;;
30605;SDS011;17371;51.328;3.860;2022-12-07T01:03:36;8.38;;;1.83;;
30605;SDS011;17371;51.328;3.860;2022-12-07T01:06:03;10.48;;;1.92;;
30605;SDS011;17371;51.328;3.860;2022-12-07T01:08:30;12.18;;;2.10;;
30605;SDS011;17371;51.328;3.860;2022-12-07T01:10:59;6.38;;;1.70;;
30605;SDS011;17371;51.328;3.860;2022-12-07T01:13:25;8.27;;;1.80;;
30605;SDS011;17371;51.328;3.860;2022-12-07T01:15:50;4.00;;;1.52;;
30605;SDS011;17371;51.328;3.860;2022-12-07T01:18:16;7.88;;;1.67;;
30605;SDS011;17371;51.328;3.860;2022-12-07T01:20:41;7.50;;;2.27;;
30605;SDS011;17371;51.328;3.860;2022-12-07T01:23:06;8.03;;;1.80;;
30605;SDS011;17371;51.328;3.860;2022-12-07T01:25:33;5.40;;;1.70;;
30605;SDS011;17371;51.328;3.860;2022-12-07T01:27:58;10.43;;;1.85;;
30605;SDS011;17371;51.328;3.860;2022-12-07T01:30:24;4.33;;;1.73;;
30605;SDS011;17371;51.328;3.860;2022-12-07T01:32:49;6.23;;;1.80;;
30605;SDS011;17371;51.328;3.860;2022-12-07T01:35:15;8.47;;;2.00;;
30605;SDS011;17371;51.328;3.860;2022-12-07T01:37:40;6.32;;;2.28;;
30605;SDS011;17371;51.328;3.860;2022-12-07T01:40:06;8.15;;;1.92;;
30605;SDS011;17371;51.328;3.860;2022-12-07T01:42:34;4.87;;;1.90;;
30605;SDS011;17371;51.328;3.860;2022-12-07T01:48:07;8.57;;;2.00;;
30605;SDS011;17371;51.328;3.860;2022-12-07T01:50:35;9.60;;;2.25;;
30605;SDS011;17371;51.328;3.860;2022-12-07T01:53:01;3.53;;;1.70;;
30605;SDS011;17371;51.328;3.860;2022-12-07T01:55:28;2.70;;;1.73;;
30605;SDS011;17371;51.328;3.860;2022-12-07T01:57:55;5.65;;;1.73;;
30605;SDS011;17371;51.328;3.860;2022-12-07T02:00:21;5.15;;;1.48;;
30605;SDS011;17371;51.328;3.860;2022-12-07T02:02:47;8.70;;;1.70;;
30605;SDS011;17371;51.328;3.860;2022-12-07T02:05:15;6.80;;;1.08;;
30605;SDS011;17371;51.328;3.860;2022-12-07T02:07:41;8.32;;;1.50;;
30605;SDS011;17371;51.328;3.860;2022-12-07T02:10:14;6.93;;;1.50;;
30605;SDS011;17371;51.328;3.860;2022-12-07T02:12:40;6.70;;;1.60;;
30605;SDS011;17371;51.328;3.860;2022-12-07T02:15:07;4.77;;;1.67;;
30605;SDS011;17371;51.328;3.860;2022-12-07T02:17:35;14.00;;;1.98;;
30605;SDS011;17371;51.328;3.860;2022-12-07T02:20:11;7.43;;;1.77;;
30605;SDS011;17371;51.328;3.860;2022-12-07T02:22:51;6.63;;;1.50;;
30605;SDS011;17371;51.328;3.860;2022-12-07T02:25:29;9.95;;;1.85;;
30605;SDS011;17371;51.328;3.860;2022-12-07T02:27:59;8.50;;;1.77;;
30605;SDS011;17371;51.328;3.860;2022-12-07T02:30:32;6.57;;;1.33;;
30605;SDS011;17371;51.328;3.860;2022-12-07T02:33:00;10.87;;;1.60;;
30605;SDS011;17371;51.328;3.860;2022-12-07T02:35:30;8.75;;;1.40;;
30605;SDS011;17371;51.328;3.860;2022-12-07T02:37:58;7.22;;;1.75;;
30605;SDS011;17371;51.328;3.860;2022-12-07T02:40:27;5.55;;;1.40;;
30605;SDS011;17371;51.328;3.860;2022-12-07T02:42:56;5.90;;;1.60;;
30605;SDS011;17371;51.328;3.860;2022-12-07T02:45:25;4.93;;;1.43;;
30605;SDS011;17371;51.328;3.860;2022-12-07T02:47:55;4.82;;;1.30;;
30605;SDS011;17371;51.328;3.860;2022-12-07T02:50:21;6.68;;;1.77;;
30605;SDS011;17371;51.328;3.860;2022-12-07T02:52:47;5.07;;;1.50;;
30605;SDS011;17371;51.328;3.860;2022-12-07T02:55:12;11.18;;;2.22;;
30605;SDS011;17371;51.328;3.860;2022-12-07T02:57:44;7.63;;;2.10;;
30605;SDS011;17371;51.328;3.860;2022-12-07T03:00:19;9.73;;;1.85;;
30605;SDS011;17371;51.328;3.860;2022-12-07T03:02:50;7.15;;;2.08;;
30605;SDS011;17371;51.328;3.860;2022-12-07T03:08:25;7.20;;;1.90;;
30605;SDS011;17371;51.328;3.860;2022-12-07T03:10:56;4.10;;;1.47;;
30605;SDS011;17371;51.328;3.860;2022-12-07T03:13:24;6.78;;;2.20;;
30605;SDS011;17371;51.328;3.860;2022-12-07T03:15:55;6.85;;;2.00;;
30605;SDS011;17371;51.328;3.860;2022-12-07T03:18:25;3.90;;;1.58;;
30605;SDS011;17371;51.328;3.860;2022-12-07T03:20:55;5.15;;;1.70;;
30605;SDS011;17371;51.328;3.860;2022-12-07T03:23:22;3.47;;;1.80;;
30605;SDS011;17371;51.328;3.860;2022-12-07T03:25:49;8.25;;;1.58;;
30605;SDS011;17371;51.328;3.860;2022-12-07T03:28:16;6.80;;;1.85;;
30605;SDS011;17371;51.328;3.860;2022-12-07T03:30:44;9.40;;;2.17;;
30605;SDS011;17371;51.328;3.860;2022-12-07T03:33:12;7.10;;;1.90;;
30605;SDS011;17371;51.328;3.860;2022-12-07T03:35:41;5.43;;;1.70;;
30605;SDS011;17371;51.328;3.860;2022-12-07T03:38:16;9.80;;;2.28;;
30605;SDS011;17371;51.328;3.860;2022-12-07T03:40:46;4.55;;;1.48;;
30605;SDS011;17371;51.328;3.860;2022-12-07T03:43:13;13.05;;;1.90;;
30605;SDS011;17371;51.328;3.860;2022-12-07T03:45:39;8.53;;;2.10;;
30605;SDS011;17371;51.328;3.860;2022-12-07T03:48:07;9.60;;;1.83;;
30605;SDS011;17371;51.328;3.860;2022-12-07T03:50:36;7.40;;;2.17;;
30605;SDS011;17371;51.328;3.860;2022-12-07T03:53:08;6.23;;;2.10;;
30605;SDS011;17371;51.328;3.860;2022-12-07T03:55:36;11.82;;;1.80;;
30605;SDS011;17371;51.328;3.860;2022-12-07T03:58:05;4.72;;;1.58;;
30605;SDS011;17371;51.328;3.860;2022-12-07T04:00:32;5.97;;;1.70;;
30605;SDS011;17371;51.328;3.860;2022-12-07T04:02:58;5.97;;;2.30;;
30605;SDS011;17371;51.328;3.860;2022-12-07T04:05:23;7.73;;;2.20;;
30605;SDS011;17371;51.328;3.860;2022-12-07T04:07:49;11.13;;;2.97;;
30605;SDS011;17371;51.328;3.860;2022-12-07T04:10:16;4.70;;;2.37;;
30605;SDS011;17371;51.328;3.860;2022-12-07T04:12:41;7.47;;;2.30;;
30605;SDS011;17371;51.328;3.860;2022-12-07T04:15:07;13.30;;;2.93;;
30605;SDS011;17371;51.328;3.860;2022-12-07T04:17:33;8.00;;;2.55;;
30605;SDS011;17371;51.328;3.860;2022-12-07T04:19:58;8.07;;;2.80;;
30605;SDS011;17371;51.328;3.860;2022-12-07T04:22:24;7.47;;;2.50;;
30605;SDS011;17371;51.328;3.860;2022-12-07T04:24:49;12.20;;;2.73;;
30605;SDS011;17371;51.328;3.860;2022-12-07T04:27:16;6.63;;;2.60;;
30605;SDS011;17371;51.328;3.860;2022-12-07T04:29:41;8.40;;;2.63;;
30605;SDS011;17371;51.328;3.860;2022-12-07T04:32:07;10.03;;;1.90;;
30605;SDS011;17371;51.328;3.860;2022-12-07T04:34:32;10.43;;;2.92;;
30605;SDS011;17371;51.328;3.860;2022-12-07T04:36:58;10.47;;;2.60;;
30605;SDS011;17371;51.328;3.860;2022-12-07T04:39:25;11.73;;;2.77;;
30605;SDS011;17371;51.328;3.860;2022-12-07T04:41:52;10.32;;;2.85;;
30605;SDS011;17371;51.328;3.860;2022-12-07T04:44:19;5.27;;;2.27;;
30605;SDS011;17371;51.328;3.860;2022-12-07T04:46:45;10.35;;;2.22;;
30605;SDS011;17371;51.328;3.860;2022-12-07T04:49:11;8.00;;;2.50;;
30605;SDS011;17371;51.328;3.860;2022-12-07T04:51:37;9.23;;;2.65;;
30605;SDS011;17371;51.328;3.860;2022-12-07T04:54:03;7.03;;;2.38;;
30605;SDS011;17371;51.328;3.860;2022-12-07T04:56:29;5.15;;;2.30;;
30605;SDS011;17371;51.328;3.860;2022-12-07T04:58:54;5.77;;;2.00;;
30605;SDS011;17371;51.328;3.860;2022-12-07T05:01:21;4.38;;;2.53;;
30605;SDS011;17371;51.328;3.860;2022-12-07T05:03:48;5.73;;;2.30;;
30605;SDS011;17371;51.328;3.860;2022-12-07T05:06:13;8.68;;;2.70;;
30605;SDS011;17371;51.328;3.860;2022-12-07T05:08:39;4.97;;;2.13;;
30605;SDS011;17371;51.328;3.860;2022-12-07T05:11:05;7.28;;;2.15;;
30605;SDS011;17371;51.328;3.860;2022-12-07T05:13:31;4.68;;;1.67;;
30605;SDS011;17371;51.328;3.860;2022-12-07T05:15:57;9.45;;;2.17;;
30605;SDS011;17371;51.328;3.860;2022-12-07T05:18:24;7.63;;;2.35;;
30605;SDS011;17371;51.328;3.860;2022-12-07T05:20:49;6.73;;;2.10;;
30605;SDS011;17371;51.328;3.860;2022-12-07T05:23:15;9.90;;;2.22;;
30605;SDS011;17371;51.328;3.860;2022-12-07T05:25:40;7.00;;;2.30;;
30605;SDS011;17371;51.328;3.860;2022-12-07T05:28:05;12.83;;;2.53;;
30605;SDS011;17371;51.328;3.860;2022-12-07T05:30:31;9.70;;;1.77;;
30605;SDS011;17371;51.328;3.860;2022-12-07T05:32:58;8.27;;;2.50;;
30605;SDS011;17371;51.328;3.860;2022-12-07T05:35:24;7.87;;;2.37;;
30605;SDS011;17371;51.328;3.860;2022-12-07T05:37:50;6.45;;;2.17;;
30605;SDS011;17371;51.328;3.860;2022-12-07T05:40:15;6.80;;;2.53;;
30605;SDS011;17371;51.328;3.860;2022-12-07T05:42:41;10.00;;;2.33;;
30605;SDS011;17371;51.328;3.860;2022-12-07T05:45:07;11.87;;;3.07;;
30605;SDS011;17371;51.328;3.860;2022-12-07T05:47:33;10.73;;;3.35;;
30605;SDS011;17371;51.328;3.860;2022-12-07T05:49:59;11.60;;;2.53;;
30605;SDS011;17371;51.328;3.860;2022-12-07T05:52:25;9.03;;;2.80;;
30605;SDS011;17371;51.328;3.860;2022-12-07T05:54:51;7.10;;;2.63;;
30605;SDS011;17371;51.328;3.860;2022-12-07T05:57:16;11.07;;;2.87;;
30605;SDS011;17371;51.328;3.860;2022-12-07T05:59:42;18.07;;;2.90;;
30605;SDS011;17371;51.328;3.860;2022-12-07T06:02:08;11.88;;;1.83;;
30605;SDS011;17371;51.328;3.860;2022-12-07T06:04:36;7.93;;;1.20;;
30605;SDS011;17371;51.328;3.860;2022-12-07T06:07:02;7.22;;;1.40;;
30605;SDS011;17371;51.328;3.860;2022-12-07T06:09:29;12.25;;;1.88;;
30605;SDS011;17371;51.328;3.860;2022-12-07T06:11:55;10.00;;;1.70;;
30605;SDS011;17371;51.328;3.860;2022-12-07T06:14:20;9.68;;;2.17;;
30605;SDS011;17371;51.328;3.860;2022-12-07T06:16:45;12.97;;;1.80;;
30605;SDS011;17371;51.328;3.860;2022-12-07T06:19:11;10.53;;;1.47;;
30605;SDS011;17371;51.328;3.860;2022-12-07T06:21:36;7.87;;;1.50;;
30605;SDS011;17371;51.328;3.860;2022-12-07T06:24:02;9.00;;;1.60;;
30605;SDS011;17371;51.328;3.860;2022-12-07T06:26:29;4.88;;;1.33;;
30605;SDS011;17371;51.328;3.860;2022-12-07T06:28:54;4.93;;;1.77;;
30605;SDS011;17371;51.328;3.860;2022-12-07T06:31:19;11.47;;;2.00;;
30605;SDS011;17371;51.328;3.860;2022-12-07T06:33:45;6.20;;;1.70;;
30605;SDS011;17371;51.328;3.860;2022-12-07T06:36:10;6.37;;;1.70;;
30605;SDS011;17371;51.328;3.860;2022-12-07T06:38:36;5.83;;;2.00;;
30605;SDS011;17371;51.328;3.860;2022-12-07T06:41:01;6.88;;;1.52;;
30605;SDS011;17371;51.328;3.860;2022-12-07T06:43:28;6.37;;;1.63;;
30605;SDS011;17371;51.328;3.860;2022-12-07T06:45:53;9.82;;;2.30;;
30605;SDS011;17371;51.328;3.860;2022-12-07T06:48:19;6.93;;;2.17;;
30605;SDS011;17371;51.328;3.860;2022-12-07T06:50:44;5.63;;;2.30;;
30605;SDS011;17371;51.328;3.860;2022-12-07T06:53:10;11.00;;;2.30;;
30605;SDS011;17371;51.328;3.860;2022-12-07T06:55:35;9.27;;;2.20;;
30605;SDS011;17371;51.328;3.860;2022-12-07T06:58:01;12.60;;;2.40;;
30605;SDS011;17371;51.328;3.860;2022-12-07T07:00:27;10.87;;;2.33;;
30605;SDS011;17371;51.328;3.860;2022-12-07T07:02:53;14.90;;;2.67;;
30605;SDS011;17371;51.328;3.860;2022-12-07T07:05:18;7.07;;;2.70;;
30605;SDS011;17371;51.328;3.860;2022-12-07T07:07:43;9.40;;;2.27;;
30605;SDS011;17371;51.328;3.860;2022-12-07T07:10:09;9.80;;;2.13;;
30605;SDS011;17371;51.328;3.860;2022-12-07T07:12:35;11.93;;;2.47;;
30605;SDS011;17371;51.328;3.860;2022-12-07T07:15:00;10.53;;;3.33;;
30605;SDS011;17371;51.328;3.860;2022-12-07T07:17:27;8.70;;;3.17;;
30605;SDS011;17371;51.328;3.860;2022-12-07T07:19:52;12.55;;;2.80;;
30605;SDS011;17371;51.328;3.860;2022-12-07T07:22:17;7.50;;;2.50;;
30605;SDS011;17371;51.328;3.860;2022-12-07T07:24:43;12.77;;;2.50;;
30605;SDS011;17371;51.328;3.860;2022-12-07T07:27:08;12.23;;;2.30;;
30605;SDS011;17371;51.328;3.860;2022-12-07T07:29:34;5.60;;;2.20;;
30605;SDS011;17371;51.328;3.860;2022-12-07T07:31:59;10.20;;;2.38;;
30605;SDS011;17371;51.328;3.860;2022-12-07T07:34:26;12.33;;;2.00;;
30605;SDS011;17371;51.328;3.860;2022-12-07T07:36:51;6.85;;;2.20;;
30605;SDS011;17371;51.328;3.860;2022-12-07T07:39:17;8.00;;;2.10;;
30605;SDS011;17371;51.328;3.860;2022-12-07T07:41:42;8.47;;;1.60;;
30605;SDS011;17371;51.328;3.860;2022-12-07T07:44:07;4.53;;;1.63;;
30605;SDS011;17371;51.328;3.860;2022-12-07T07:46:34;8.68;;;1.77;;
30605;SDS011;17371;51.328;3.860;2022-12-07T07:48:59;13.77;;;1.60;;
30605;SDS011;17371;51.328;3.860;2022-12-07T07:51:26;12.37;;;2.40;;
30605;SDS011;17371;51.328;3.860;2022-12-07T07:53:51;7.18;;;2.50;;
30605;SDS011;17371;51.328;3.860;2022-12-07T07:56:17;6.80;;;2.13;;
30605;SDS011;17371;51.328;3.860;2022-12-07T07:58:42;10.23;;;2.10;;
30605;SDS011;17371;51.328;3.860;2022-12-07T08:01:07;10.57;;;2.10;;
30605;SDS011;17371;51.328;3.860;2022-12-07T08:03:33;5.80;;;2.50;;
30605;SDS011;17371;51.328;3.860;2022-12-07T08:05:59;11.98;;;2.25;;
30605;SDS011;17371;51.328;3.860;2022-12-07T08:08:25;10.70;;;2.70;;
30605;SDS011;17371;51.328;3.860;2022-12-07T08:10:51;12.00;;;2.28;;
30605;SDS011;17371;51.328;3.860;2022-12-07T08:13:16;8.57;;;2.47;;
30605;SDS011;17371;51.328;3.860;2022-12-07T08:15:42;8.27;;;2.87;;
30605;SDS011;17371;51.328;3.860;2022-12-07T08:18:09;13.63;;;2.97;;
30605;SDS011;17371;51.328;3.860;2022-12-07T08:20:35;7.83;;;2.40;;
30605;SDS011;17371;51.328;3.860;2022-12-07T08:23:01;12.88;;;2.40;;
30605;SDS011;17371;51.328;3.860;2022-12-07T08:25:27;11.27;;;2.33;;
30605;SDS011;17371;51.328;3.860;2022-12-07T08:27:53;11.73;;;2.80;;
30605;SDS011;17371;51.328;3.860;2022-12-07T08:30:19;14.00;;;2.83;;
30605;SDS011;17371;51.328;3.860;2022-12-07T08:32:45;11.18;;;3.03;;
30605;SDS011;17371;51.328;3.860;2022-12-07T08:35:11;11.95;;;3.30;;
30605;SDS011;17371;51.328;3.860;2022-12-07T08:37:36;10.63;;;2.53;;
30605;SDS011;17371;51.328;3.860;2022-12-07T08:40:02;9.60;;;2.33;;
30605;SDS011;17371;51.328;3.860;2022-12-07T08:42:29;14.35;;;3.17;;
30605;SDS011;17371;51.328;3.860;2022-12-07T08:44:54;10.32;;;3.03;;
30605;SDS011;17371;51.328;3.860;2022-12-07T08:47:20;13.27;;;3.60;;
30605;SDS011;17371;51.328;3.860;2022-12-07T08:49:46;12.07;;;3.33;;
30605;SDS011;17371;51.328;3.860;2022-12-07T08:52:12;11.63;;;3.20;;
30605;SDS011;17371;51.328;3.860;2022-12-07T08:54:38;19.48;;;3.38;;
30605;SDS011;17371;51.328;3.860;2022-12-07T08:57:05;11.10;;;3.20;;
30605;SDS011;17371;51.328;3.860;2022-12-07T08:59:32;7.53;;;3.05;;
30605;SDS011;17371;51.328;3.860;2022-12-07T09:01:58;12.57;;;3.67;;
30605;SDS011;17371;51.328;3.860;2022-12-07T09:04:23;5.13;;;2.77;;
30605;SDS011;17371;51.328;3.860;2022-12-07T09:06:49;13.53;;;3.27;;
30605;SDS011;17371;51.328;3.860;2022-12-07T09:09:14;13.97;;;3.57;;
30605;SDS011;17371;51.328;3.860;2022-12-07T09:11:40;7.60;;;3.13;;
30605;SDS011;17371;51.328;3.860;2022-12-07T09:14:05;10.63;;;3.33;;
30605;SDS011;17371;51.328;3.860;2022-12-07T09:16:32;11.43;;;3.50;;
30605;SDS011;17371;51.328;3.860;2022-12-07T09:18:57;10.98;;;3.33;;
30605;SDS011;17371;51.328;3.860;2022-12-07T09:21:23;12.73;;;3.80;;
30605;SDS011;17371;51.328;3.860;2022-12-07T09:23:48;13.87;;;4.07;;
30605;SDS011;17371;51.328;3.860;2022-12-07T09:26:14;12.27;;;4.23;;
30605;SDS011;17371;51.328;3.860;2022-12-07T09:28:39;13.93;;;4.23;;
30605;SDS011;17371;51.328;3.860;2022-12-07T09:31:04;17.13;;;5.05;;
30605;SDS011;17371;51.328;3.860;2022-12-07T09:33:31;13.60;;;3.90;;
30605;SDS011;17371;51.328;3.860;2022-12-07T09:35:57;10.80;;;4.35;;
30605;SDS011;17371;51.328;3.860;2022-12-07T09:38:22;11.47;;;4.50;;
30605;SDS011;17371;51.328;3.860;2022-12-07T09:40:47;15.57;;;4.60;;
30605;SDS011;17371;51.328;3.860;2022-12-07T09:43:13;8.67;;;4.80;;
30605;SDS011;17371;51.328;3.860;2022-12-07T09:45:40;8.88;;;4.25;;
30605;SDS011;17371;51.328;3.860;2022-12-07T09:48:08;12.70;;;4.00;;
30605;SDS011;17371;51.328;3.860;2022-12-07T09:50:42;18.80;;;4.70;;
30605;SDS011;17371;51.328;3.860;2022-12-07T09:53:09;19.25;;;5.60;;
30605;SDS011;17371;51.328;3.860;2022-12-07T09:55:35;18.23;;;5.70;;
30605;SDS011;17371;51.328;3.860;2022-12-07T09:58:01;18.67;;;5.53;;
30605;SDS011;17371;51.328;3.860;2022-12-07T10:00:27;15.70;;;4.70;;
30605;SDS011;17371;51.328;3.860;2022-12-07T10:02:53;17.37;;;5.03;;
30605;SDS011;17371;51.328;3.860;2022-12-07T10:05:22;17.27;;;4.35;;
30605;SDS011;17371;51.328;3.860;2022-12-07T10:07:50;13.90;;;4.70;;
30605;SDS011;17371;51.328;3.860;2022-12-07T10:10:17;16.75;;;4.40;;
30605;SDS011;17371;51.328;3.860;2022-12-07T10:12:55;10.70;;;4.07;;
30605;SDS011;17371;51.328;3.860;2022-12-07T10:15:22;17.08;;;4.43;;
30605;SDS011;17371;51.328;3.860;2022-12-07T10:17:49;16.10;;;4.80;;
30605;SDS011;17371;51.328;3.860;2022-12-07T10:20:17;12.55;;;4.05;;
30605;SDS011;17371;51.328;3.860;2022-12-07T10:22:56;14.55;;;4.53;;
30605;SDS011;17371;51.328;3.860;2022-12-07T10:25:25;14.10;;;4.72;;
30605;SDS011;17371;51.328;3.860;2022-12-07T10:27:59;17.58;;;4.68;;
30605;SDS011;17371;51.328;3.860;2022-12-07T10:30:26;13.90;;;4.87;;
30605;SDS011;17371;51.328;3.860;2022-12-07T10:32:51;13.35;;;4.70;;
30605;SDS011;17371;51.328;3.860;2022-12-07T10:35:18;14.43;;;4.53;;
30605;SDS011;17371;51.328;3.860;2022-12-07T10:37:45;12.35;;;4.63;;
30605;SDS011;17371;51.328;3.860;2022-12-07T10:40:23;14.57;;;4.80;;
30605;SDS011;17371;51.328;3.860;2022-12-07T10:43:00;14.98;;;4.78;;
30605;SDS011;17371;51.328;3.860;2022-12-07T10:45:27;15.37;;;4.63;;
30605;SDS011;17371;51.328;3.860;2022-12-07T10:47:54;12.15;;;3.67;;
30605;SDS011;17371;51.328;3.860;2022-12-07T10:50:36;13.27;;;4.30;;
30605;SDS011;17371;51.328;3.860;2022-12-07T10:56:01;11.77;;;3.28;;
30605;SDS011;17371;51.328;3.860;2022-12-07T10:58:40;7.20;;;2.92;;
30605;SDS011;17371;51.328;3.860;2022-12-07T11:01:18;6.55;;;2.70;;
30605;SDS011;17371;51.328;3.860;2022-12-07T11:03:53;6.00;;;2.30;;
30605;SDS011;17371;51.328;3.860;2022-12-07T11:06:27;7.82;;;2.15;;
30605;SDS011;17371;51.328;3.860;2022-12-07T11:09:02;6.20;;;2.30;;
30605;SDS011;17371;51.328;3.860;2022-12-07T11:11:35;8.75;;;1.98;;
30605;SDS011;17371;51.328;3.860;2022-12-07T11:14:05;10.20;;;2.13;;
30605;SDS011;17371;51.328;3.860;2022-12-07T11:16:41;4.27;;;1.80;;
30605;SDS011;17371;51.328;3.860;2022-12-07T11:19:20;13.82;;;2.80;;
30605;SDS011;17371;51.328;3.860;2022-12-07T11:21:51;11.43;;;2.10;;
30605;SDS011;17371;51.328;3.860;2022-12-07T11:24:23;9.65;;;2.08;;
30605;SDS011;17371;51.328;3.860;2022-12-07T11:26:58;9.23;;;2.30;;
30605;SDS011;17371;51.328;3.860;2022-12-07T11:29:35;12.30;;;2.50;;
30605;SDS011;17371;51.328;3.860;2022-12-07T11:32:09;8.68;;;2.28;;
30605;SDS011;17371;51.328;3.860;2022-12-07T11:34:41;12.82;;;2.42;;
30605;SDS011;17371;51.328;3.860;2022-12-07T11:37:13;8.50;;;2.10;;
30605;SDS011;17371;51.328;3.860;2022-12-07T11:39:41;10.55;;;1.75;;
30605;SDS011;17371;51.328;3.860;2022-12-07T11:42:12;12.73;;;2.20;;
30605;SDS011;17371;51.328;3.860;2022-12-07T11:44:47;7.25;;;1.90;;
30605;SDS011;17371;51.328;3.860;2022-12-07T11:47:16;10.93;;;2.20;;
30605;SDS011;17371;51.328;3.860;2022-12-07T11:49:44;11.75;;;2.10;;
30605;SDS011;17371;51.328;3.860;2022-12-07T11:52:15;4.47;;;1.55;;
30605;SDS011;17371;51.328;3.860;2022-12-07T11:54:46;7.73;;;1.50;;
30605;SDS011;17371;51.328;3.860;2022-12-07T11:57:16;8.23;;;1.60;;
30605;SDS011;17371;51.328;3.860;2022-12-07T11:59:45;9.82;;;1.67;;
30605;SDS011;17371;51.328;3.860;2022-12-07T12:02:14;7.13;;;2.20;;
30605;SDS011;17371;51.328;3.860;2022-12-07T12:04:45;5.10;;;1.25;;
30605;SDS011;17371;51.328;3.860;2022-12-07T12:07:15;4.50;;;1.47;;
30605;SDS011;17371;51.328;3.860;2022-12-07T12:09:48;6.43;;;0.93;;
30605;SDS011;17371;51.328;3.860;2022-12-07T12:15:16;8.65;;;2.17;;
30605;SDS011;17371;51.328;3.860;2022-12-07T12:17:52;4.80;;;1.30;;
30605;SDS011;17371;51.328;3.860;2022-12-07T12:20:23;2.27;;;1.13;;
30605;SDS011;17371;51.328;3.860;2022-12-07T12:22:53;5.32;;;1.20;;
30605;SDS011;17371;51.328;3.860;2022-12-07T12:25:21;4.10;;;1.20;;
30605;SDS011;17371;51.328;3.860;2022-12-07T12:27:52;3.05;;;1.15;;
30605;SDS011;17371;51.328;3.860;2022-12-07T12:30:32;6.70;;;1.30;;
30605;SDS011;17371;51.328;3.860;2022-12-07T12:33:03;9.37;;;1.30;;
30605;SDS011;17371;51.328;3.860;2022-12-07T12:35:31;6.35;;;1.17;;
30605;SDS011;17371;51.328;3.860;2022-12-07T12:40:56;5.10;;;0.85;;
30605;SDS011;17371;51.328;3.860;2022-12-07T12:49:33;6.15;;;1.10;;
30605;SDS011;17371;51.328;3.860;2022-12-07T12:52:00;3.35;;;1.00;;
30605;SDS011;17371;51.328;3.860;2022-12-07T12:54:27;3.38;;;1.33;;
30605;SDS011;17371;51.328;3.860;2022-12-07T12:56:55;3.13;;;0.80;;
30605;SDS011;17371;51.328;3.860;2022-12-07T12:59:26;5.60;;;1.10;;
30605;SDS011;17371;51.328;3.860;2022-12-07T13:01:54;7.28;;;1.77;;
30605;SDS011;17371;51.328;3.860;2022-12-07T13:04:25;5.22;;;1.50;;
30605;SDS011;17371;51.328;3.860;2022-12-07T13:06:54;5.28;;;1.40;;
30605;SDS011;17371;51.328;3.860;2022-12-07T13:09:20;4.10;;;1.30;;
30605;SDS011;17371;51.328;3.860;2022-12-07T13:11:47;2.45;;;1.15;;
30605;SDS011;17371;51.328;3.860;2022-12-07T13:23:14;8.85;;;1.38;;
30605;SDS011;17371;51.328;3.860;2022-12-07T13:25:49;5.70;;;1.13;;
30605;SDS011;17371;51.328;3.860;2022-12-07T13:28:17;7.47;;;1.90;;
30605;SDS011;17371;51.328;3.860;2022-12-07T13:30:45;9.27;;;3.33;;
30605;SDS011;17371;51.328;3.860;2022-12-07T13:33:17;7.45;;;2.90;;
30605;SDS011;17371;51.328;3.860;2022-12-07T13:35:43;8.02;;;2.53;;
30605;SDS011;17371;51.328;3.860;2022-12-07T13:38:15;6.87;;;2.30;;
30605;SDS011;17371;51.328;3.860;2022-12-07T13:40:58;8.55;;;2.10;;
30605;SDS011;17371;51.328;3.860;2022-12-07T13:43:24;7.50;;;1.60;;
30605;SDS011;17371;51.328;3.860;2022-12-07T13:45:55;6.33;;;1.60;;
30605;SDS011;17371;51.328;3.860;2022-12-07T13:48:24;10.38;;;2.35;;
30605;SDS011;17371;51.328;3.860;2022-12-07T13:50:53;5.83;;;1.40;;
30605;SDS011;17371;51.328;3.860;2022-12-07T13:53:19;3.53;;;1.00;;
30605;SDS011;17371;51.328;3.860;2022-12-07T13:55:44;3.43;;;0.90;;
30605;SDS011;17371;51.328;3.860;2022-12-07T13:58:11;9.25;;;1.27;;
30605;SDS011;17371;51.328;3.860;2022-12-07T14:00:36;5.83;;;1.27;;
30605;SDS011;17371;51.328;3.860;2022-12-07T14:03:02;7.73;;;1.57;;
30605;SDS011;17371;51.328;3.860;2022-12-07T14:05:31;8.27;;;1.77;;
30605;SDS011;17371;51.328;3.860;2022-12-07T14:07:58;7.32;;;1.98;;
30605;SDS011;17371;51.328;3.860;2022-12-07T14:10:25;12.77;;;1.70;;
30605;SDS011;17371;51.328;3.860;2022-12-07T14:12:52;6.40;;;1.60;;
30605;SDS011;17371;51.328;3.860;2022-12-07T14:15:19;8.53;;;1.20;;
30605;SDS011;17371;51.328;3.860;2022-12-07T14:17:49;8.27;;;1.00;;
30605;SDS011;17371;51.328;3.860;2022-12-07T14:20:29;7.67;;;1.00;;
30605;SDS011;17371;51.328;3.860;2022-12-07T14:22:56;7.75;;;1.23;;
30605;SDS011;17371;51.328;3.860;2022-12-07T14:25:22;15.77;;;1.83;;
30605;SDS011;17371;51.328;3.860;2022-12-07T14:27:50;9.30;;;1.75;;
30605;SDS011;17371;51.328;3.860;2022-12-07T14:30:17;8.50;;;2.20;;
30605;SDS011;17371;51.328;3.860;2022-12-07T14:32:43;11.32;;;1.63;;
30605;SDS011;17371;51.328;3.860;2022-12-07T14:35:09;9.50;;;1.20;;
30605;SDS011;17371;51.328;3.860;2022-12-07T14:37:38;12.85;;;1.60;;
30605;SDS011;17371;51.328;3.860;2022-12-07T14:40:05;7.18;;;4.35;;
30605;SDS011;17371;51.328;3.860;2022-12-07T14:42:31;14.70;;;7.47;;
30605;SDS011;17371;51.328;3.860;2022-12-07T14:44:58;24.87;;;11.90;;
30605;SDS011;17371;51.328;3.860;2022-12-07T14:47:23;11.77;;;7.07;;
30605;SDS011;17371;51.328;3.860;2022-12-07T14:49:49;10.30;;;4.90;;
30605;SDS011;17371;51.328;3.860;2022-12-07T14:52:16;7.93;;;3.08;;
30605;SDS011;17371;51.328;3.860;2022-12-07T14:54:44;5.17;;;1.63;;
30605;SDS011;17371;51.328;3.860;2022-12-07T14:57:10;1.83;;;0.98;;
30605;SDS011;17371;51.328;3.860;2022-12-07T14:59:35;2.50;;;1.20;;
30605;SDS011;17371;51.328;3.860;2022-12-07T15:02:01;3.00;;;1.13;;
30605;SDS011;17371;51.328;3.860;2022-12-07T15:04:26;2.97;;;1.13;;
30605;SDS011;17371;51.328;3.860;2022-12-07T15:06:55;2.20;;;1.07;;
30605;SDS011;17371;51.328;3.860;2022-12-07T15:09:21;3.08;;;1.60;;
30605;SDS011;17371;51.328;3.860;2022-12-07T15:11:48;3.63;;;0.90;;
30605;SDS011;17371;51.328;3.860;2022-12-07T15:14:13;4.47;;;1.73;;